Flight Track Log - Related Links

Times and Time Zones

All times are in EDT time to prevent confusion due to time zone crossing. See the AWI3688 flight status page for this flight to view local times or setup timezone preferences in your user account.

Time Position Orientation Groundspeed Altitude Reporting Facility
EDT Latitude Longitude Course Direction KTS MPH feet Rate Location/Type
Thu 12:08:09 PM 39.8667 -75.2667 323° Northwest 159 183 800  Level Philadelphia TRACON
Thu 12:09:15 PM 39.8500 -75.3333 252° West 205 236 3,300 2,500 Climbing Philadelphia TRACON
Thu 12:10:00 PM 40.1379 -75.4878 323° Northwest  Level FlightAware Approximate
Thu 12:10:09 PM 39.8500 -75.4167 270° West 263 303 5,800  Level Philadelphia TRACON
Thu 12:11:00 PM 40.2304 -75.5705 311° West  Level FlightAware Approximate
Thu 12:11:15 PM 39.9167 -75.4500 339° North 277 319 9,600  Level Philadelphia TRACON
Thu 12:12:00 PM 40.3065 -75.6847 311° West  Level FlightAware Approximate
Thu 12:12:17 PM 40.0089 -75.4864 343° North 317 365 11,700  Level New York Center
Thu 12:13:00 PM 40.3820 -75.7987 323° Northwest  Level FlightAware Approximate
Thu 12:13:17 PM 40.0767 -75.5128 343° North 346 398 13,000  Level New York Center
Thu 12:14:18 PM 40.1753 -75.5467 345° North 341 392 13,000 836 Level New York Center
Thu 12:15:19 PM 40.2561 -75.6094 329° Northwest 326 375 14,700 1,831 Climbing New York Center
Thu 12:16:16 PM 40.3108 -75.6975 309° West 332 382 16,600 1,160 Climbing New York Center
Thu 12:17:18 PM 40.3833 -75.8036 312° West 352 405 17,000 195 Climbing New York Center
Thu 12:18:19 PM 40.4417 -75.9061 307° West 352 405 17,000 694 Level New York Center
Thu 12:19:19 PM 40.4631 -76.0303 283° West 345 397 18,400 1,525 Climbing New York Center
Thu 12:20:17 PM 40.4803 -76.1600 280° West 358 412 20,000 1,576 Climbing New York Center
Thu 12:21:17 PM 40.5033 -76.2928 283° West 368 423 21,500 1,438 Climbing New York Center
Thu 12:22:18 PM 40.5219 -76.4281 280° West 374 430 22,900 1,289 Climbing New York Center
Thu 12:23:18 PM 40.5508 -76.5644 286° West 379 436 24,100 1,050 Climbing New York Center
Thu 12:24:18 PM 40.6394 -76.6239 333° Northwest 328 377 25,000 458 Climbing New York Center
Thu 12:25:16 PM 40.7406 -76.6461 351° North 334 384 25,000  Level New York Center
Thu 12:26:17 PM 40.8356 -76.6653 351° North 334 384 25,000  Level New York Center
Thu 12:27:17 PM 40.9283 -76.6842 351° North 340 391 25,000  Level New York Center
Thu 12:28:17 PM 41.0222 -76.6814 North 340 391 25,000  Level New York Center
Thu 12:29:18 PM 41.1139 -76.6400 19° North 331 381 25,000  Level New York Center
Thu 12:30:18 PM 41.2078 -76.5956 20° North 344 396 25,000  Level New York Center
Thu 12:31:19 PM 41.3017 -76.5511 20° North 350 403 25,000  Level New York Center
Thu 12:32:17 PM 41.3975 -76.5069 19° North 355 409 25,000  Level New York Center
Thu 12:33:17 PM 41.4933 -76.4625 19° North 355 409 25,000  Level New York Center
Thu 12:34:18 PM 41.5872 -76.4150 21° North 355 409 25,000  Level New York Center
Thu 12:35:18 PM 41.6725 -76.3750 19° North 355 409 25,000 -136 Level New York Center
Thu 12:37:15 PM 41.8600 -76.2844 20° North 356 410 24,600 -305 Descending Boston Center
Thu 12:38:15 PM 41.9533 -76.2369 21° North 356 410 24,100 -300 Descending Boston Center
Thu 12:39:15 PM 42.0442 -76.1950 19° North 356 410 24,000 -50 Descending Boston Center
Thu 12:40:15 PM 42.1356 -76.1472 21° North 356 410 24,000  Level Boston Center
Thu 12:41:15 PM 42.1953 -76.0386 53° Northeast 347 399 24,000  Level Boston Center
Thu 12:42:15 PM 42.2367 -75.9147 66° East 352 405 24,000 -200 Level Boston Center
Thu 12:44:15 PM 42.3281 -75.6475 65° Northeast 359 413 23,400 -733 Descending Boston Center
Thu 12:45:15 PM 42.3731 -75.5206 64° Northeast 369 425 21,800 -1,550 Descending Boston Center
Thu 12:46:15 PM 42.4161 -75.3958 65° Northeast 369 425 20,300 -1,500 Descending Boston Center
Thu 12:47:15 PM 42.4589 -75.2714 65° Northeast 369 425 18,800 -1,500 Descending Boston Center
Thu 12:48:15 PM 42.4869 -75.1431 73° East 369 425 17,300 -1,500 Descending Boston Center
Thu 12:49:15 PM 42.5128 -75.0175 74° East 358 412 15,800 -1,364 Descending Boston Center
Thu 12:50:27 PM 42.5386 -74.8944 74° East 358 412 14,300 -1,543 Descending Boston Center
Thu 12:51:00 PM 42.5531 -74.7936 79° East 340 391 13,100 -1,900 Descending Boston Center
Thu 12:51:27 PM 42.5647 -74.7403 73° East 348 400 12,400 -1,475 Descending Boston Center
Thu 12:52:01 PM 42.5786 -74.6733 74° East 333 383 11,600 -1,300 Descending Boston Center
Thu 12:52:27 PM 42.5878 -74.6200 77° East 342 394 11,100 -600 Descending Boston Center
Thu 12:53:01 PM 42.6036 -74.5556 72° East 323 372 11,000 -100 Descending Boston Center
Thu 12:53:27 PM 42.6108 -74.5050 79° East 319 367 11,000 -986 Level Boston Center
Thu 12:54:14 PM 42.6394 -74.4214 65° Northeast 303 349 9,800 -1,684 Descending Boston Center
Thu 12:55:21 PM 42.6747 -74.3153 66° East 284 327 7,800 -1,890 Descending Boston Center
Thu 12:56:21 PM 42.7094 -74.2231 63° Northeast 272 313 5,800 -1,934 Descending Boston Center
Thu 12:57:22 PM 42.7400 -74.1364 64° Northeast 259 298 3,900 -1,426 Descending Boston Center
Thu 12:58:23 PM 42.7703 -74.0494 65° Northeast 242 278 2,900 -694 Descending Boston Center
Thu 12:59:23 PM 42.7964 -73.9764 64° Northeast 190 219 2,500 -446 Descending Boston Center
Thu 01:00:24 PM 42.8244 -73.9150 58° Northeast 188 216 2,000 -492 Descending Boston Center

Login

Don't have an account? Register now (free) for customized features, flight alerts, and more!